Аэропорт: Жуляны. Киев

ICAO: UKKK

METAR:
2020-06-04 03:30:00
UKKK 040330Z 24003MPS 210V270 CAVOK 10/09 Q1004 R26/290156 NOSIG
METAR:
2020-06-03 23:12:00
TAF COR UKKK 032312Z 0400/0424 21004MPS 9999 BKN012 TEMPO 0400/0405 VRB01MPS 2000 BR BKN005 PROB40 TEMPO 0400/0405 0300 FG VV002 BECMG 0405/0406 19006G12MPS TEMPO 0406/0409 2100 -SHRA BKN007 SCT015CB TEMPO 0409/0418 VRB10G18MPS 1200 TSRAGR SQ BKN006 BKN012CB